Data for 01/12/2005

Time Sea-Level Adjusted Pressure Absolute Pressure Temperature Relative Humidity Dew Point   
(mb) (inHg) (mb) (inHg) (C) (F) (%) (C) (F)
00:05 1004 29.65 833 24.6 -9.4 15 79 -12.4 9.7
00:10 1004 29.65 833 24.6 -9.8 14.5 81 -12.5 9.5
00:15 1004 29.65 833 24.6 -9.1 15.6 76 -12.6 9.4
00:20 1004 29.65 833 24.6 -8.5 16.7 71 -12.8 9
00:25 1004 29.65 833 24.6 -8.6 16.5 72 -12.8 9
00:30 1004 29.65 833 24.6 -8.6 16.6 72 -12.7 9.1
00:35 1004 29.65 833 24.6 -7.2 19 66 -12.5 9.5
00:40 1004 29.65 833 24.6 -7.5 18.5 67 -12.6 9.3
00:45 1004 29.65 833 24.6 -8.9 16 74 -12.8 8.9
00:50 1004 29.65 833 24.6 -8.3 17.1 70 -12.8 8.9
00:55 1004 29.65 833 24.6 -7.6 18.3 68 -12.5 9.5
01:00 1004 29.65 833 24.6 -7.6 18.3 67 -12.6 9.2
01:05 1004 29.65 833 24.6 -7.3 18.9 66 -12.6 9.4
01:10 1004 29.65 833 24.6 -7.9 17.9 69 -12.5 9.4
01:15 1004 29.65 833 24.6 -8.2 17.2 69 -12.9 8.7
01:20 1004 29.65 833 24.6 -7.9 17.8 68 -12.8 8.9
01:25 1004 29.65 833 24.6 -7.4 18.7 66 -12.8 9
01:30 1004 29.65 833 24.6 -7.1 19.2 65 -12.7 9.2
01:35 1004 29.65 833 24.6 -6.8 19.7 64 -12.5 9.5
01:40 1004 29.65 833 24.6 -6.9 19.6 64 -12.6 9.4
01:45 1004 29.65 833 24.6 -7 19.4 63 -12.9 8.8
01:50 1004 29.65 833 24.6 -7 19.4 63 -12.9 8.8
01:55 1004 29.65 833 24.6 -7.4 18.6 64 -13.1 8.5
02:00 1004 29.65 833 24.6 -8.4 16.9 69 -13.1 8.5
02:05 1004 29.65 833 24.6 -8.8 16.1 69 -13.6 7.6
02:10 1004 29.65 834 24.63 -8.9 16.1 71 -13.3 8.1
02:15 1004 29.65 834 24.63 -8.7 16.3 70 -13.2 8.3
02:20 1004 29.65 834 24.63 -8.7 16.4 74 -12.5 9.5
02:25 1005 29.68 834 24.63 -8.7 16.3 71 -13.1 8.4
02:30 1005 29.68 834 24.63 -8.9 16 74 -12.6 9.2
02:35 1005 29.68 834 24.63 -8.6 16.5 70 -13.1 8.4
02:40 1005 29.68 834 24.63 -8.9 15.9 74 -12.7 9.1
02:45 1005 29.68 834 24.63 -9 15.8 71 -13.4 7.8
02:50 1005 29.68 834 24.63 -8.8 16.2 69 -13.5 7.6
02:55 1005 29.68 834 24.63 -8.7 16.4 70 -13.2 8.3
03:00 1005 29.68 834 24.63 -8.6 16.6 68 -13.5 7.7
03:05 1005 29.68 834 24.63 -8.5 16.7 66 -13.8 7.2
03:10 1005 29.68 834 24.63 -8.8 16.1 67 -13.9 6.9
03:15 1005 29.68 834 24.63 -8.5 16.7 66 -13.7 7.3
03:20 1005 29.68 834 24.63 -8.1 17.4 65 -13.6 7.5
03:25 1005 29.68 834 24.63 -8 17.7 65 -13.5 7.7
03:30 1005 29.68 834 24.63 -8.2 17.3 66 -13.5 7.8
03:35 1005 29.68 834 24.63 -8.1 17.4 66 -13.4 7.8
03:40 1005 29.68 834 24.63 -7.9 17.8 66 -13.3 8.1
03:45 1005 29.68 834 24.63 -7.8 18 65 -13.2 8.2
03:50 1005 29.68 835 24.66 -7.9 17.8 66 -13.2 8.2
03:55 1005 29.68 835 24.66 -8.2 17.3 65 -13.6 7.5
04:00 1005 29.68 834 24.63 -8.9 15.9 68 -13.9 7
04:05 1005 29.68 834 24.63 -9.6 14.7 69 -14.3 6.3
04:10 1005 29.68 834 24.63 -10.2 13.6 70 -14.6 5.6
04:15 1005 29.68 834 24.63 -10.5 13.1 73 -14.5 5.9
04:20 1005 29.68 834 24.63 -10.1 13.8 70 -14.6 5.8
04:25 1005 29.68 834 24.63 -10.3 13.5 71 -14.6 5.7
04:30 1005 29.68 834 24.63 -10.1 13.8 75 -13.8 7.2
04:35 1005 29.68 834 24.63 -9.8 14.3 70 -14.3 6.2
04:40 1005 29.68 834 24.63 -9.1 15.6 68 -14.1 6.7
04:45 1004 29.65 834 24.63 -9.2 15.4 67 -14.3 6.2
04:50 1004 29.65 834 24.63 -9.7 14.6 69 -14.3 6.3
04:55 1004 29.65 834 24.63 -9.9 14.2 71 -14.2 6.4
05:00 1004 29.65 834 24.63 -9.9 14.3 70 -14.4 6.1
05:05 1005 29.68 834 24.63 -9.7 14.5 70 -14.2 6.5
05:10 1005 29.68 834 24.63 -9.6 14.8 70 -14.1 6.7
05:15 1005 29.68 834 24.63 -9.5 14.9 70 -13.9 6.9
05:20 1005 29.68 834 24.63 -9.4 15.1 71 -13.7 7.3
05:25 1005 29.68 834 24.63 -8.9 16.1 68 -13.8 7.2
05:30 1005 29.68 834 24.63 -8 17.7 65 -13.4 7.9
05:35 1005 29.68 834 24.63 -7.7 18.1 64 -13.4 7.8
05:40 1005 29.68 834 24.63 -7.5 18.5 63 -13.4 7.9
05:45 1005 29.68 835 24.66 -7.5 18.6 64 -13.2 8.3
05:50 1005 29.68 835 24.66 -7.4 18.7 64 -13.1 8.4
05:55 1006 29.71 835 24.66 -7.3 19 64 -12.9 8.7
06:00 1006 29.71 835 24.66 -7 19.5 64 -12.7 9.2
06:05 1006 29.71 835 24.66 -6.7 19.9 64 -12.5 9.5
06:10 1006 29.71 835 24.66 -6.7 20 64 -12.4 9.7
06:15 1006 29.71 835 24.66 -6.8 19.7 65 -12.4 9.7
06:20 1006 29.71 835 24.66 -7.2 19.1 67 -12.3 9.9
06:25 1006 29.71 835 24.66 -7.3 18.9 68 -12.3 9.9
06:30 1006 29.71 836 24.69 -7.2 19 67 -12.3 9.9
06:35 1006 29.71 836 24.69 -7.1 19.2 68 -12.1 10.2
06:40 1007 29.74 836 24.69 -7.1 19.3 67 -12.1 10.2
06:45 1007 29.74 836 24.69 -7 19.4 67 -12.1 10.2
06:50 1007 29.74 836 24.69 -7 19.4 67 -12.1 10.3
06:55 1006 29.71 836 24.69 -7.1 19.2 67 -12.2 10.1
07:00 1006 29.71 835 24.66 -7.2 19.1 67 -12.4 9.7
07:05 1006 29.71 835 24.66 -7 19.5 66 -12.4 9.7
07:10 1006 29.71 836 24.69 -6.9 19.7 66 -12.3 9.9
07:15 1006 29.71 836 24.69 -6.8 19.8 65 -12.4 9.8
07:20 1006 29.71 836 24.69 -6.7 20 64 -12.4 9.7
07:25 1006 29.71 836 24.69 -6.6 20.2 64 -12.3 9.9
07:30 1007 29.74 836 24.69 -6.5 20.3 64 -12.2 10
07:35 1007 29.74 836 24.69 -6.6 20.2 65 -12 10.4
07:40 1007 29.74 836 24.69 -7.1 19.2 65 -12.6 9.3
07:45 1007 29.74 836 24.69 -6.8 19.7 65 -12.4 9.7
07:50 1007 29.74 836 24.69 -6.7 19.9 62 -12.8 9
07:55 1007 29.74 836 24.69 -6.3 20.7 62 -12.5 9.5
08:00 1007 29.74 836 24.69 -6 21.1 61 -12.5 9.6
08:05 1007 29.74 837 24.72 -5.9 21.5 60 -12.4 9.6
08:10 1007 29.74 837 24.72 -5.9 21.4 60 -12.4 9.8
08:15 1008 29.77 837 24.72 -5.9 21.4 61 -12.3 9.8
08:20 1008 29.77 837 24.72 -5.9 21.3 61 -12.4 9.7
08:25 1008 29.77 837 24.72 -5.9 21.3 61 -12.3 9.8
08:30 1008 29.77 837 24.72 -5.8 21.5 60 -12.4 9.7
08:35 1008 29.77 837 24.72 -6 21.3 61 -12.4 9.7
08:40 1008 29.77 837 24.72 -6 21.2 61 -12.3 9.8
08:45 1008 29.77 837 24.72 -6 21.2 61 -12.4 9.7
08:50 1008 29.77 837 24.72 -5.8 21.6 60 -12.3 9.8
08:55 1008 29.77 837 24.72 -5.6 21.9 60 -12.2 10.1
09:00 1008 29.77 837 24.72 -5.7 21.8 59 -12.5 9.6
09:05 1008 29.77 837 24.72 -5.7 21.7 61 -12.1 10.2
09:10 1008 29.77 837 24.72 -5.7 21.7 62 -11.8 10.7
09:15 1008 29.77 838 24.75 -5.6 21.9 60 -12.2 10
09:20 1008 29.77 838 24.75 -5.2 22.6 58 -12.2 10.1
09:25 1008 29.77 838 24.75 -5 23 56 -12.4 9.7
09:30 1009 29.8 838 24.75 -4.6 23.7 55 -12.4 9.7
09:35 1009 29.8 838 24.75 -4.2 24.4 53 -12.4 9.6
09:40 1008 29.77 838 24.75 -3.7 25.4 51 -12.5 9.5
09:45 1008 29.77 838 24.75 -3.4 25.9 51 -12.2 10.1
09:50 1008 29.77 838 24.75 -3.2 26.2 49 -12.6 9.3
09:55 1008 29.77 838 24.75 -3 26.5 48 -12.5 9.5
10:00 1008 29.77 837 24.72 -2.9 26.7 48 -12.6 9.3
10:05 1008 29.77 837 24.72 -2.8 26.9 48 -12.3 9.8
10:10 1008 29.77 837 24.72 -2.8 26.9 49 -12 10.3
10:15 1008 29.77 837 24.72 -2.7 27.1 49 -12.1 10.2
10:20 1008 29.77 837 24.72 -2.7 27.1 49 -12 10.4
10:25 1008 29.77 837 24.72 -2.7 27.1 49 -12 10.5
10:30 1008 29.77 837 24.72 -2.7 27.2 49 -12 10.4
10:35 1008 29.77 837 24.72 -2.5 27.4 48 -12 10.4
10:40 1008 29.77 837 24.72 -2.5 27.5 50 -11.7 11
10:45 1008 29.77 837 24.72 -2.4 27.7 48 -11.9 10.5
10:50 1008 29.77 837 24.72 -2.2 28 48 -11.9 10.7
10:55 1008 29.77 837 24.72 -2.1 28.2 47 -11.9 10.6
11:00 1008 29.77 837 24.72 -2 28.4 46 -12.1 10.2
11:05 1008 29.77 837 24.72 -1.7 28.9 44 -12.4 9.7
11:10 1008 29.77 837 24.72 -1.7 28.9 45 -12.3 9.9
11:15 1008 29.77 837 24.72 -1.8 28.8 44 -12.4 9.7
11:20 1008 29.77 837 24.72 -1.8 28.8 45 -12.1 10.2
11:25 1008 29.77 837 24.72 -1.8 28.8 43 -12.9 8.8
11:30 1008 29.77 837 24.72 -1.8 28.8 44 -12.6 9.4
11:35 1008 29.77 837 24.72 -1.7 29 43 -12.8 9
11:40 1008 29.77 837 24.72 -1.5 29.3 41 -13.1 8.5
11:45 1008 29.77 837 24.72 -1.5 29.3 42 -12.9 8.8
11:50 1008 29.77 837 24.72 -1.5 29.3 43 -12.7 9.2
11:55 1008 29.77 837 24.72 -1.4 29.5 40 -13.4 7.8
12:00 1008 29.77 837 24.72 -1.2 29.9 41 -12.7 9.1
12:05 1008 29.77 837 24.72 -1.3 29.7 42 -12.6 9.4
12:10 1008 29.77 837 24.72 -1.3 29.7 41 -13 8.6
12:15 1008 29.77 837 24.72 -1.2 29.8 42 -12.5 9.4
12:20 1008 29.77 837 24.72 -1.3 29.7 42 -12.7 9.1
12:25 1008 29.77 837 24.72 -1.3 29.7 41 -12.9 8.7
12:30 1007 29.74 837 24.72 -1.3 29.6 42 -12.6 9.3
12:35 1008 29.77 837 24.72 -1.3 29.7 43 -12.4 9.7
12:40 1008 29.77 837 24.72 -1.3 29.6 43 -12.4 9.7
12:45 1008 29.77 837 24.72 -1.2 29.8 42 -12.4 9.6
12:50 1007 29.74 837 24.72 -1.2 29.8 44 -12 10.4
12:55 1007 29.74 837 24.72 -1.3 29.7 43 -12.2 10
13:00 1008 29.77 837 24.72 -1.3 29.7 43 -12.3 9.9
13:05 1007 29.74 837 24.72 -1.3 29.7 45 -11.7 11
13:10 1007 29.74 837 24.72 -1.2 29.8 44 -12.1 10.3
13:15 1007 29.74 837 24.72 -1.2 29.8 44 -12 10.4
13:20 1008 29.77 837 24.72 -1.2 29.9 43 -12.2 10
13:25 1008 29.77 837 24.72 -1.2 29.9 44 -11.9 10.6
13:30 1008 29.77 837 24.72 -1.2 29.9 43 -12.2 10
13:35 1008 29.77 837 24.72 -1.1 30.1 43 -12 10.4
13:40 1008 29.77 837 24.72 -1 30.2 44 -11.7 11
13:45 1008 29.77 837 24.72 -1 30.3 44 -11.9 10.7
13:50 1008 29.77 837 24.72 -0.9 30.3 45 -11.5 11.3
13:55 1008 29.77 837 24.72 -0.8 30.6 42 -12.3 9.9
14:00 1008 29.77 837 24.72 -0.7 30.7 43 -11.8 10.7
14:05 1008 29.77 837 24.72 -0.7 30.7 45 -11.2 11.8
14:10 1008 29.77 837 24.72 -0.7 30.8 43 -11.6 11.1
14:15 1008 29.77 837 24.72 -0.7 30.8 44 -11.5 11.3
14:20 1008 29.77 837 24.72 -0.5 31 45 -10.9 12.3
14:25 1008 29.77 837 24.72 -0.6 31 44 -11.4 11.4
14:30 1008 29.77 837 24.72 -0.6 31 45 -11.1 12
14:35 1008 29.77 837 24.72 -0.6 31 45 -11.2 11.8
14:40 1008 29.77 837 24.72 -0.6 30.9 44 -11.3 11.6
14:45 1008 29.77 837 24.72 -0.7 30.8 43 -11.7 11
14:50 1007 29.74 837 24.72 -0.6 30.9 46 -10.9 12.3
14:55 1007 29.74 837 24.72 -0.7 30.7 45 -11.2 11.8
15:00 1007 29.74 837 24.72 -0.7 30.7 45 -11.2 11.9
15:05 1008 29.77 837 24.72 -0.8 30.6 47 -10.8 12.5
15:10 1007 29.74 837 24.72 -0.8 30.6 46 -11.1 12.1
15:15 1007 29.74 837 24.72 -0.8 30.6 46 -11.1 12
15:20 1007 29.74 837 24.72 -0.8 30.5 47 -10.9 12.4
15:25 1007 29.74 837 24.72 -0.8 30.5 48 -10.6 12.8
15:30 1007 29.74 837 24.72 -0.8 30.6 48 -10.5 13.1
15:35 1007 29.74 837 24.72 -0.9 30.3 46 -11.2 11.9
15:40 1007 29.74 837 24.72 -1 30.1 48 -10.7 12.7
15:45 1007 29.74 837 24.72 -1.1 30.1 49 -10.6 12.9
15:50 1007 29.74 837 24.72 -1 30.3 48 -10.7 12.8
15:55 1007 29.74 837 24.72 -1 30.2 49 -10.4 13.3
16:00 1008 29.77 837 24.72 -1.1 29.9 50 -10.2 13.6
16:05 1008 29.77 837 24.72 -1.2 29.9 50 -10.4 13.2
16:10 1008 29.77 837 24.72 -1.3 29.6 51 -10.2 13.6
16:15 1008 29.77 837 24.72 -1.3 29.6 51 -10.3 13.5
16:20 1008 29.77 837 24.72 -1.4 29.5 50 -10.5 13.1
16:25 1008 29.77 837 24.72 -1.4 29.4 50 -10.5 13
16:30 1008 29.77 837 24.72 -1.4 29.5 49 -10.7 12.8
16:35 1008 29.77 837 24.72 -1.5 29.3 50 -10.5 13.1
16:40 1008 29.77 837 24.72 -1.5 29.3 49 -11 12.2
16:45 1008 29.77 837 24.72 -1.6 29.1 49 -10.9 12.4
16:50 1008 29.77 837 24.72 -1.6 29.1 51 -10.6 13
16:55 1008 29.77 837 24.72 -1.8 28.8 49 -11 12.1
17:00 1008 29.77 837 24.72 -1.8 28.8 50 -10.9 12.4
17:05 1008 29.77 837 24.72 -1.8 28.8 51 -10.8 12.6
17:10 1008 29.77 838 24.75 -1.8 28.8 51 -10.7 12.7
17:15 1008 29.77 838 24.75 -1.8 28.7 51 -10.6 12.9
17:20 1008 29.77 837 24.72 -1.9 28.6 51 -10.7 12.7
17:25 1008 29.77 838 24.75 -2 28.5 52 -10.6 12.9
17:30 1008 29.77 838 24.75 -1.9 28.6 51 -10.7 12.8
17:35 1008 29.77 837 24.72 -1.9 28.6 51 -10.8 12.6
17:40 1008 29.77 838 24.75 -1.9 28.6 51 -10.7 12.7
17:45 1008 29.77 838 24.75 -2 28.5 51 -10.7 12.8
17:50 1008 29.77 837 24.72 -2 28.3 52 -10.6 12.9
17:55 1008 29.77 838 24.75 -2.1 28.2 52 -10.7 12.7
18:00 1008 29.77 838 24.75 -2.1 28.2 53 -10.4 13.3
18:05 1008 29.77 838 24.75 -2.2 28.1 53 -10.5 13.1
18:10 1008 29.77 838 24.75 -2.2 28.1 54 -10.4 13.3
18:15 1008 29.77 838 24.75 -2.2 28.1 54 -10.3 13.4
18:20 1008 29.77 838 24.75 -2.2 28 54 -10.2 13.6
18:25 1008 29.77 838 24.75 -2.3 27.8 54 -10.5 13.1
18:30 1008 29.77 838 24.75 -2.3 27.9 52 -10.9 12.5
18:35 1008 29.77 838 24.75 -2.2 28 54 -10.4 13.3
18:40 1008 29.77 838 24.75 -2.4 27.7 54 -10.4 13.3
18:45 1008 29.77 838 24.75 -2.5 27.6 53 -10.7 12.7
18:50 1008 29.77 838 24.75 -2.3 27.8 52 -10.8 12.5
18:55 1008 29.77 838 24.75 -2.3 27.8 52 -11 12.2
19:00 1008 29.77 838 24.75 -2.3 27.9 51 -11.1 12.1
19:05 1008 29.77 838 24.75 -2.2 28.1 49 -11.5 11.3
19:10 1008 29.77 838 24.75 -2.1 28.3 49 -11.3 11.7
19:15 1008 29.77 838 24.75 -2 28.4 48 -11.6 11
19:20 1008 29.77 838 24.75 -2 28.3 48 -11.6 11.2
19:25 1008 29.77 838 24.75 -2.1 28.2 47 -11.9 10.6
19:30 1008 29.77 838 24.75 -2.1 28.2 48 -11.6 11.1
19:35 1008 29.77 838 24.75 -2.1 28.1 47 -11.9 10.6
19:40 1008 29.77 838 24.75 -2.1 28.3 47 -11.9 10.5
19:45 1008 29.77 838 24.75 -2 28.4 47 -12 10.4
19:50 1008 29.77 838 24.75 -2.1 28.3 48 -11.7 10.9
19:55 1009 29.8 838 24.75 -2.1 28.2 47 -11.9 10.6
20:00 1009 29.8 838 24.75 -2 28.4 47 -12 10.5
20:05 1009 29.8 838 24.75 -2 28.5 46 -12.2 10
20:10 1008 29.77 838 24.75 -1.9 28.6 45 -12.2 10.1
20:15 1008 29.77 838 24.75 -1.8 28.8 44 -12.4 9.6
20:20 1009 29.8 838 24.75 -1.8 28.7 45 -12.3 9.8
20:25 1008 29.77 838 24.75 -1.9 28.6 45 -12.3 9.8
20:30 1008 29.77 838 24.75 -1.9 28.6 45 -12.2 10
20:35 1008 29.77 838 24.75 -2 28.5 45 -12.3 9.9
20:40 1009 29.8 838 24.75 -2 28.4 45 -12.3 9.9
20:45 1009 29.8 838 24.75 -2 28.4 45 -12.4 9.6
20:50 1009 29.8 838 24.75 -2 28.5 45 -12.4 9.7
20:55 1008 29.77 838 24.75 -2.1 28.3 46 -12.3 9.8
21:00 1008 29.77 838 24.75 -2.1 28.2 46 -12.2 10.1
21:05 1008 29.77 838 24.75 -2.2 28.1 47 -12 10.3
21:10 1009 29.8 838 24.75 -2.2 28 46 -12.2 10
21:15 1009 29.8 838 24.75 -2.2 28 46 -12.3 9.9
21:20 1009 29.8 838 24.75 -2.1 28.2 45 -12.5 9.5
21:25 1009 29.8 838 24.75 -2.2 28.1 45 -12.5 9.5
21:30 1009 29.8 838 24.75 -2.1 28.1 45 -12.5 9.4
21:35 1008 29.77 838 24.75 -2 28.4 43 -12.9 8.8
21:40 1009 29.8 838 24.75 -1.8 28.7 44 -12.4 9.6
21:45 1008 29.77 838 24.75 -2 28.5 44 -12.6 9.3
21:50 1009 29.8 838 24.75 -1.8 28.7 44 -12.5 9.6
21:55 1009 29.8 838 24.75 -1.9 28.5 45 -12.3 9.8
22:00 1009 29.8 838 24.75 -2 28.5 45 -12.3 9.9
22:05 1009 29.8 838 24.75 -2 28.4 45 -12.3 9.8
22:10 1009 29.8 838 24.75 -2 28.5 45 -12.4 9.8
22:15 1009 29.8 838 24.75 -1.9 28.6 45 -12.2 10
22:20 1009 29.8 838 24.75 -1.9 28.6 46 -12 10.4
22:25 1009 29.8 838 24.75 -1.8 28.7 45 -12.2 10
22:30 1009 29.8 838 24.75 -1.8 28.7 46 -11.9 10.6
22:35 1009 29.8 838 24.75 -1.9 28.6 46 -12.1 10.2
22:40 1009 29.8 838 24.75 -1.8 28.8 47 -11.6 11.1
22:45 1009 29.8 838 24.75 -1.8 28.7 46 -11.9 10.6
22:50 1009 29.8 838 24.75 -1.8 28.8 48 -11.5 11.3
22:55 1009 29.8 838 24.75 -1.8 28.7 47 -11.8 10.8
23:00 1009 29.8 838 24.75 -1.8 28.7 47 -11.6 11
23:05 1009 29.8 838 24.75 -1.8 28.7 48 -11.6 11.2
23:10 1009 29.8 839 24.78 -1.9 28.6 48 -11.5 11.3
23:15 1009 29.8 839 24.78 -1.9 28.6 48 -11.6 11.2
23:20 1010 29.83 839 24.78 -2.6 27.4 51 -11.5 11.3
23:25 1010 29.83 839 24.78 -4 24.7 54 -11.9 10.5
23:30 1010 29.83 839 24.78 -4.6 23.7 56 -12.2 10.1
23:35 1010 29.83 839 24.78 -5.1 22.7 57 -12.4 9.6
23:40 1010 29.83 839 24.78 -5.6 22 58 -12.6 9.3
23:45 1010 29.83 839 24.78 -6.5 20.3 60 -13 8.6
23:50 1010 29.83 839 24.78 -7.5 18.5 62 -13.5 7.6
23:55 1010 29.83 839 24.78 -8.2 17.3 64 -13.8 7.1
24:00 1010 29.83 839 24.78 -8.5 16.6 65 -14 6.8